Time;durP1;ratioP1;P1;durP2;ratioP2;P2;SDS_P1;SDS_P2;PMS_P1;PMS_P2;Temp;Humidity;BMP_temperature;BMP_pressure;BME280_temperature;BME280_humidity;BME280_pressure;Samples;Min_cycle;Max_cycle;Signal;HPM_P1;HPM_P2
2021/12/25 00:00:34;;;;;;;16.27;9.48;;;;;;;3.20;100.00;100567.81;5051423;28;20049;-52
2021/12/25 00:03:03;;;;;;;15.63;8.90;;;;;;;3.25;100.00;100557.22;5047264;28;21669;-52
2021/12/25 00:05:32;;;;;;;17.88;8.85;;;;;;;3.25;100.00;100569.38;5050390;28;20125;-53
2021/12/25 00:08:00;;;;;;;16.05;9.52;;;;;;;3.27;100.00;100572.75;5043086;28;20056;-53
2021/12/25 00:10:30;;;;;;;16.73;9.48;;;;;;;3.29;100.00;100576.16;5031850;28;20065;-52
2021/12/25 00:12:59;;;;;;;16.85;9.23;;;;;;;3.29;100.00;100579.59;5044896;28;20510;-52
2021/12/25 00:15:28;;;;;;;16.05;9.60;;;;;;;3.22;100.00;100586.78;5030950;28;20511;-51
2021/12/25 00:17:56;;;;;;;14.75;8.68;;;;;;;3.22;100.00;100586.78;5029859;28;20056;-54
2021/12/25 00:20:24;;;;;;;13.68;7.85;;;;;;;3.17;100.00;100580.06;5030924;28;20077;-54
2021/12/25 00:22:52;;;;;;;13.85;7.53;;;;;;;3.10;100.00;100587.25;5031302;28;20041;-52
2021/12/25 00:25:21;;;;;;;12.35;6.38;;;;;;;3.06;100.00;100585.69;5040396;28;20357;-52
2021/12/25 00:27:58;;;;;;;16.45;8.05;;;;;;;3.14;100.00;100578.44;5043067;28;20049;-52
2021/12/25 00:30:36;;;;;;;11.88;6.28;;;;;;;3.01;100.00;100582.41;5049483;28;20524;-53
2021/12/25 00:33:17;;;;;;;12.80;6.95;;;;;;;3.00;100.00;100578.97;5048940;28;20053;-55
2021/12/25 00:35:46;;;;;;;13.18;7.25;;;;;;;3.02;100.00;100589.28;5050576;28;20048;-52
2021/12/25 00:38:14;;;;;;;12.73;7.43;;;;;;;3.04;100.00;100585.75;5050832;28;20100;-53
2021/12/25 00:40:42;;;;;;;15.85;8.02;;;;;;;2.97;100.00;100596.41;5050963;28;20114;-53
2021/12/25 00:43:10;;;;;;;13.70;7.47;;;;;;;2.95;100.00;100595.63;5050796;28;20037;-52
2021/12/25 00:45:40;;;;;;;12.43;7.07;;;;;;;2.92;100.00;100590.53;5049501;28;20041;-53
2021/12/25 00:48:08;;;;;;;14.30;7.45;;;;;;;2.96;100.00;100599.91;5050739;28;20045;-53
2021/12/25 00:50:36;;;;;;;13.80;7.47;;;;;;;2.91;100.00;100605.28;5047294;28;20049;-54
2021/12/25 00:53:04;;;;;;;12.07;6.88;;;;;;;2.88;100.00;100602.81;5048435;28;20072;-54
2021/12/25 00:55:33;;;;;;;12.75;7.13;;;;;;;2.77;100.00;100613.59;5053813;28;20045;-52
2021/12/25 00:58:01;;;;;;;13.27;7.38;;;;;;;2.67;100.00;100610.47;5054144;28;20533;-54
2021/12/25 01:00:29;;;;;;;13.02;7.55;;;;;;;2.53;100.00;100604.94;5054134;28;20084;-53
2021/12/25 01:02:59;;;;;;;11.20;6.72;;;;;;;2.54;100.00;100602.28;5054093;28;20404;-52
2021/12/25 01:05:27;;;;;;;14.38;8.25;;;;;;;2.47;100.00;100608.59;5054107;28;20465;-53
2021/12/25 01:07:55;;;;;;;15.05;8.63;;;;;;;2.46;100.00;100613.84;5054002;28;20090;-54
2021/12/25 01:10:23;;;;;;;14.68;8.95;;;;;;;2.48;100.00;100615.47;5052762;28;20361;-51
2021/12/25 01:13:01;;;;;;;14.45;8.40;;;;;;;2.38;100.00;100627.06;5051388;28;20052;-52
2021/12/25 01:15:39;;;;;;;14.98;9.00;;;;;;;2.29;100.00;100622.19;5053059;28;20049;-53
2021/12/25 01:18:40;;;;;;;15.95;8.98;;;;;;;2.41;100.00;100621.78;5053733;28;20103;-53
2021/12/25 01:21:38;;;;;;;16.30;9.15;;;;;;;2.34;100.00;100634.09;5051425;28;20068;-54
2021/12/25 01:24:37;;;;;;;16.88;9.73;;;;;;;2.26;100.00;100633.53;5050726;28;20059;-54
2021/12/25 01:29:52;;;;;;;17.48;9.50;;;;;;;2.23;100.00;100627.59;5053506;28;20053;-52
2021/12/25 01:32:55;;;;;;;16.38;10.10;;;;;;;2.27;100.00;100635.22;5053431;28;20063;-52
2021/12/25 01:35:44;;;;;;;;;;;;;;;2.19;100.00;100626.84;5053976;28;20091;-54
2021/12/25 01:38:25;;;;;;;18.67;10.48;;;;;;;2.15;100.00;100636.47;5051525;28;19921;-53
2021/12/25 01:41:04;;;;;;;17.40;10.73;;;;;;;1.99;100.00;100636.16;5051155;28;20388;-50
2021/12/25 01:49:03;;;;;;;23.50;12.43;;;;;;;1.90;100.00;100631.25;5053245;28;20045;-52
2021/12/25 01:51:32;;;;;;;18.88;11.07;;;;;;;1.84;100.00;100621.06;5053100;28;20055;-53
2021/12/25 01:54:01;;;;;;;22.17;11.68;;;;;;;1.86;100.00;100627.06;5053218;28;20103;-52
2021/12/25 01:56:29;;;;;;;22.23;11.75;;;;;;;1.74;100.00;100624.88;5053060;28;20057;-48
2021/12/25 01:58:57;;;;;;;19.77;12.15;;;;;;;1.77;100.00;100628.22;5053098;28;20090;-50
2021/12/25 02:01:25;;;;;;;19.98;12.45;;;;;;;1.68;100.00;100629.34;5052976;28;20056;-52
2021/12/25 02:03:53;;;;;;;19.52;11.48;;;;;;;1.68;100.00;100641.47;5052856;28;20144;-50
2021/12/25 02:06:21;;;;;;;21.52;12.27;;;;;;;1.69;100.00;100636.25;5052275;28;20095;-50
2021/12/25 02:08:51;;;;;;;21.30;13.00;;;;;;;1.56;100.00;100636.69;5051383;28;20525;-53
2021/12/25 02:11:19;;;;;;;20.35;12.63;;;;;;;1.52;100.00;100639.34;5051251;28;20377;-55
2021/12/25 02:13:48;;;;;;;21.30;12.80;;;;;;;1.53;100.00;100642.81;5050090;28;20060;-55
2021/12/25 02:16:20;;;;;;;23.10;13.35;;;;;;;1.53;100.00;100637.63;5052722;28;20045;-54
2021/12/25 02:19:00;;;;;;;22.73;12.80;;;;;;;1.57;100.00;100639.22;5052120;28;20065;-53
2021/12/25 02:21:35;;;;;;;23.30;13.90;;;;;;;1.57;100.00;100639.22;5049829;28;20522;-54
2021/12/25 02:24:05;;;;;;;22.80;12.48;;;;;;;1.57;100.00;100631.44;5049909;28;20546;-52
2021/12/25 02:26:37;;;;;;;23.30;14.20;;;;;;;1.48;100.00;100632.56;5051927;28;20049;-52
2021/12/25 02:29:05;;;;;;;21.25;13.20;;;;;;;1.51;100.00;100624.72;5052537;28;20041;-52
2021/12/25 02:31:33;;;;;;;20.92;12.48;;;;;;;1.46;100.00;100618.81;5052373;28;20056;-53
2021/12/25 02:34:02;;;;;;;24.35;13.48;;;;;;;1.51;100.00;100619.53;5052342;28;20519;-52
2021/12/25 02:36:31;;;;;;;25.23;14.35;;;;;;;1.43;100.00;100624.09;5052416;28;20075;-52
2021/12/25 02:38:59;;;;;;;24.95;13.63;;;;;;;1.43;100.00;100620.63;5052136;28;20045;-50
2021/12/25 02:41:27;;;;;;;28.00;15.23;;;;;;;1.39;100.00;100617.31;5052107;28;20064;-54
2021/12/25 02:43:55;;;;;;;30.85;16.20;;;;;;;1.39;100.00;100621.63;5051898;28;20040;-54
2021/12/25 02:46:25;;;;;;;25.38;14.88;;;;;;;1.36;100.00;100607.00;5051970;28;20045;-52
2021/12/25 02:48:56;;;;;;;27.40;14.50;;;;;;;1.31;100.00;100601.97;5051955;28;20396;-52
2021/12/25 02:51:24;;;;;;;24.65;13.68;;;;;;;1.29;100.00;100606.34;5049076;28;20060;-53
2021/12/25 02:53:54;;;;;;;30.00;15.68;;;;;;;1.22;100.00;100616.97;5049176;28;20128;-53
2021/12/25 02:56:22;;;;;;;28.55;15.02;;;;;;;1.22;100.00;100604.84;5051830;28;20393;-55
2021/12/25 02:58:50;;;;;;;27.50;15.02;;;;;;;1.21;100.00;100612.66;5047870;28;20060;-54
2021/12/25 03:01:21;;;;;;;28.65;15.50;;;;;;;1.19;100.00;100610.13;5046165;28;20048;-51
2021/12/25 03:03:50;;;;;;;27.05;13.85;;;;;;;1.21;100.00;100610.09;5049281;28;20068;-52
2021/12/25 03:06:18;;;;;;;25.70;13.82;;;;;;;1.14;100.00;100612.84;5051914;28;20139;-52
2021/12/25 03:08:46;;;;;;;27.13;14.45;;;;;;;1.10;100.00;100618.16;5042612;28;20079;-54
2021/12/25 03:11:16;;;;;;;27.05;15.48;;;;;;;1.14;100.00;100625.78;5030448;28;20045;-52
2021/12/25 03:13:55;;;;;;;26.50;13.65;;;;;;;1.05;100.00;100630.41;5029666;28;20088;-51
2021/12/25 03:16:24;;;;;;;23.42;12.40;;;;;;;1.12;100.00;100626.75;5030733;28;20060;-53
2021/12/25 03:18:55;;;;;;;26.48;12.95;;;;;;;1.18;100.00;100631.75;5032182;28;20110;-51
2021/12/25 03:21:24;;;;;;;28.15;13.20;;;;;;;1.06;100.00;100630.34;5031439;28;20057;-53
2021/12/25 03:23:53;;;;;;;27.23;13.27;;;;;;;1.10;100.00;100649.25;5031633;28;20053;-53
2021/12/25 03:26:22;;;;;;;28.35;13.98;;;;;;;1.00;100.00;100641.75;5031593;28;20057;-52
2021/12/25 03:28:53;;;;;;;23.92;12.93;;;;;;;0.82;100.00;100639.69;5031913;28;20053;-50
2021/12/25 03:31:22;;;;;;;25.38;12.68;;;;;;;0.82;100.00;100642.28;5031568;28;20415;-53
2021/12/25 03:33:52;;;;;;;25.25;13.13;;;;;;;0.81;100.00;100638.81;5031531;28;20057;-51
2021/12/25 03:36:20;;;;;;;25.27;12.77;;;;;;;0.83;100.00;100650.00;5031784;28;20404;-53
2021/12/25 03:38:48;;;;;;;29.13;13.27;;;;;;;0.80;100.00;100646.63;5031252;28;20045;-53
2021/12/25 03:41:18;;;;;;;20.85;10.80;;;;;;;0.82;100.00;100650.03;5030522;28;20587;-51
2021/12/25 03:43:48;;;;;;;22.90;11.55;;;;;;;0.66;100.00;100654.78;5030597;28;20370;-54
2021/12/25 03:46:18;;;;;;;20.83;10.55;;;;;;;0.65;100.00;100656.50;5028161;28;20436;-53
2021/12/25 04:00:04;;;;;;;19.60;9.65;;;;;;;0.63;100.00;100665.22;5047797;28;20049;-52
2021/12/25 04:02:37;;;;;;;20.88;10.35;;;;;;;0.63;100.00;100666.06;5046213;28;20065;-53
2021/12/25 04:05:14;;;;;;;17.95;9.63;;;;;;;0.62;100.00;100663.53;5031321;28;20041;-55
2021/12/25 04:08:00;;;;;;;16.33;8.70;;;;;;;0.68;100.00;100660.75;5031507;28;20096;-55
2021/12/25 04:10:28;;;;;;;15.80;8.43;;;;;;;0.66;100.00;100660.78;5040634;28;20526;-53
2021/12/25 04:12:57;;;;;;;16.10;7.90;;;;;;;0.49;100.00;100673.34;5050374;28;20579;-53
2021/12/25 04:15:26;;;;;;;17.60;9.10;;;;;;;0.52;100.00;100662.06;5043413;28;20044;-53
2021/12/25 04:17:54;;;;;;;16.25;8.55;;;;;;;0.50;100.00;100665.56;5049350;28;20036;-53
2021/12/25 04:20:23;;;;;;;14.93;7.72;;;;;;;0.45;100.00;100662.22;5050730;28;20060;-52
2021/12/25 04:22:52;;;;;;;18.80;8.18;;;;;;;0.44;100.00;100673.47;5051071;28;20057;-54
2021/12/25 04:25:26;;;;;;;17.02;7.88;;;;;;;0.43;100.00;100673.50;5044889;28;20045;-55
2021/12/25 04:27:56;;;;;;;15.98;8.32;;;;;;;0.38;100.00;100676.19;5047134;28;20067;-53
2021/12/25 04:30:34;;;;;;;13.02;7.78;;;;;;;0.36;100.00;100684.91;5054245;28;20049;-52
2021/12/25 05:04:03;;;;;;;8.90;4.28;;;;;;;-0.13;100.00;100720.56;5006999;28;20067;-53
2021/12/25 05:06:32;;;;;;;9.25;4.75;;;;;;;-0.15;100.00;100723.19;5054048;28;20048;-54
2021/12/25 05:09:00;;;;;;;11.20;4.65;;;;;;;-0.13;100.00;100730.91;5044130;28;20056;-51
2021/12/25 05:11:28;;;;;;;8.43;3.80;;;;;;;-0.21;100.00;100726.72;5052847;28;20067;-52
2021/12/25 05:13:56;;;;;;;8.23;4.20;;;;;;;-0.09;100.00;100722.19;5052709;28;20036;-52
2021/12/25 05:16:25;;;;;;;8.20;3.92;;;;;;;-0.17;100.00;100722.34;5050386;28;20064;-54
2021/12/25 05:18:54;;;;;;;6.88;3.70;;;;;;;-0.25;100.00;100727.69;5045955;28;20053;-53
2021/12/25 05:21:23;;;;;;;7.35;3.15;;;;;;;-0.30;100.00;100737.28;5033705;28;20061;-52
2021/12/25 05:23:52;;;;;;;7.55;3.17;;;;;;;-0.31;100.00;100737.28;5034064;28;20049;-54
2021/12/25 05:26:20;;;;;;;8.75;3.33;;;;;;;-0.31;100.00;100745.91;5034432;28;20038;-53
2021/12/25 05:28:57;;;;;;;3.78;2.00;;;;;;;-0.37;100.00;100739.16;5048113;28;20077;-49
2021/12/25 05:31:26;;;;;;;4.93;2.40;;;;;;;-0.38;100.00;100757.28;5030699;28;20052;-51
2021/12/25 05:33:55;;;;;;;4.70;2.13;;;;;;;-0.33;100.00;100754.59;5033160;28;20128;-52
2021/12/25 05:36:27;;;;;;;6.00;2.72;;;;;;;-0.48;100.00;100763.50;5033669;28;20051;-54
2021/12/25 05:38:57;;;;;;;5.47;2.60;;;;;;;-0.59;100.00;100768.91;5033529;28;20083;-54
2021/12/25 05:41:27;;;;;;;5.40;2.65;;;;;;;-0.56;100.00;100761.06;5045399;28;20500;-54
2021/12/25 05:43:55;;;;;;;6.63;3.22;;;;;;;-0.58;100.00;100749.94;5050864;28;20045;-52
2021/12/25 05:46:24;;;;;;;6.38;2.85;;;;;;;-0.69;100.00;100763.06;5052211;28;20052;-53
2021/12/25 05:48:52;;;;;;;5.93;2.83;;;;;;;-0.73;100.00;100759.69;5050184;28;20056;-52
2021/12/25 05:51:27;;;;;;;5.90;2.67;;;;;;;-0.81;100.00;100761.56;5051520;28;20048;-52
2021/12/25 05:53:55;;;;;;;8.48;3.20;;;;;;;-0.82;100.00;100757.28;5051365;28;20438;-54
2021/12/25 05:56:25;;;;;;;4.93;2.63;;;;;;;-0.76;100.00;100774.41;5050343;28;20053;-53
2021/12/25 05:58:53;;;;;;;6.68;2.38;;;;;;;-0.73;100.00;100771.75;5052798;28;20037;-53
2021/12/25 06:01:21;;;;;;;7.90;2.97;;;;;;;-0.86;100.00;100777.16;5046458;28;20515;-54
2021/12/25 06:03:50;;;;;;;7.03;3.00;;;;;;;-0.85;100.00;100775.41;5033882;28;20081;-51
2021/12/25 06:06:18;;;;;;;9.05;3.05;;;;;;;-0.82;100.00;100783.09;5033310;28;20042;-54
2021/12/25 06:08:47;;;;;;;7.22;2.67;;;;;;;-0.83;100.00;100776.25;5035667;28;21596;-54
2021/12/25 06:11:16;;;;;;;5.53;2.85;;;;;;;-0.88;100.00;100778.91;5034869;28;20120;-52
2021/12/25 06:13:56;;;;;;;5.85;2.88;;;;;;;-0.93;100.00;100780.72;5048326;28;20049;-52
2021/12/25 06:16:24;;;;;;;9.50;3.67;;;;;;;-0.90;100.00;100787.56;5037213;28;20491;-53
2021/12/25 06:18:52;;;;;;;9.13;3.90;;;;;;;-1.06;100.00;100800.75;5030910;28;20079;-53
2021/12/25 06:21:20;;;;;;;9.98;4.40;;;;;;;-1.02;100.00;100786.06;5031714;28;20448;-51
2021/12/25 06:23:50;;;;;;;8.48;4.28;;;;;;;-1.06;100.00;100795.59;5037468;28;20049;-52
2021/12/25 06:26:34;;;;;;;7.85;3.90;;;;;;;-1.02;100.00;100801.56;5033011;28;20069;-53
2021/12/25 06:29:03;;;;;;;7.57;3.80;;;;;;;-0.94;100.00;100794.53;5032644;28;20057;-52
2021/12/25 06:31:31;;;;;;;7.68;4.18;;;;;;;-1.00;100.00;100804.09;5032629;28;20407;-53
2021/12/25 06:34:00;;;;;;;7.78;3.97;;;;;;;-1.04;100.00;100805.88;5040351;28;20052;-53
2021/12/25 06:36:28;;;;;;;10.80;3.80;;;;;;;-1.10;100.00;100813.75;5051004;28;20045;-54
2021/12/25 06:38:57;;;;;;;5.68;3.10;;;;;;;-1.13;100.00;100821.53;5051810;28;20049;-53
2021/12/25 06:41:25;;;;;;;7.32;4.07;;;;;;;-1.15;100.00;100815.56;5050127;28;20102;-52
2021/12/25 06:43:53;;;;;;;6.70;3.70;;;;;;;-1.13;100.00;100821.53;5048067;28;20428;-53
2021/12/25 06:46:21;;;;;;;8.82;3.90;;;;;;;-1.20;100.00;100818.19;5043687;28;20099;-53
2021/12/25 06:48:50;;;;;;;7.88;3.83;;;;;;;-1.32;100.00;100832.16;5051867;28;20072;-53
2021/12/25 06:51:18;;;;;;;7.32;3.38;;;;;;;-1.36;100.00;100822.78;5051858;28;20045;-52
2021/12/25 06:53:46;;;;;;;9.38;3.88;;;;;;;-1.38;100.00;100820.22;5052100;28;20080;-53
2021/12/25 06:56:15;;;;;;;8.18;3.60;;;;;;;-1.45;100.00;100831.50;5052156;28;20045;-51
2021/12/25 06:58:44;;;;;;;7.18;3.55;;;;;;;-1.51;100.00;100825.56;5052098;28;20060;-53
2021/12/25 07:01:12;;;;;;;7.78;3.75;;;;;;;-1.56;100.00;100830.81;5051856;28;20508;-53
2021/12/25 07:03:40;;;;;;;8.77;3.45;;;;;;;-1.54;100.00;100834.22;5049425;28;20095;-54
2021/12/25 07:06:09;;;;;;;8.48;4.05;;;;;;;-1.60;100.00;100829.16;5049139;28;20037;-54
2021/12/25 07:08:38;;;;;;;8.18;3.58;;;;;;;-1.57;100.00;100844.59;5051557;28;20408;-54
2021/12/25 07:11:06;;;;;;;9.38;3.85;;;;;;;-1.62;100.00;100839.50;5051539;28;20516;-54
2021/12/25 07:13:36;;;;;;;7.18;3.70;;;;;;;-1.52;100.00;100839.38;5049596;28;20049;-53
2021/12/25 07:16:05;;;;;;;7.78;3.50;;;;;;;-1.50;100.00;100835.03;5047827;28;20633;-53
2021/12/25 07:18:33;;;;;;;9.63;3.97;;;;;;;-1.67;100.00;100830.97;5050672;28;20107;-52
2021/12/25 07:21:01;;;;;;;7.25;3.95;;;;;;;-1.63;100.00;100849.84;5050896;28;20064;-53
2021/12/25 07:23:29;;;;;;;11.02;4.22;;;;;;;-1.65;100.00;100851.59;5050091;28;20044;-50
2021/12/25 07:25:57;;;;;;;7.75;4.00;;;;;;;-1.60;100.00;100847.22;5048998;28;20048;-52
2021/12/25 07:28:26;;;;;;;6.60;3.60;;;;;;;-1.66;100.00;100855.91;5050781;28;20099;-54
2021/12/25 07:30:56;;;;;;;9.27;4.45;;;;;;;-1.74;100.00;100858.56;5051412;28;20049;-51
2021/12/25 07:33:25;;;;;;;10.50;4.28;;;;;;;-1.80;100.00;100863.84;5051430;28;20102;-52
2021/12/25 07:35:53;;;;;;;8.82;4.18;;;;;;;-1.67;100.00;100861.91;5051400;28;20456;-54
2021/12/25 07:38:21;;;;;;;8.10;4.25;;;;;;;-1.71;100.00;100863.69;5051488;28;20063;-54
2021/12/25 07:40:50;;;;;;;7.88;4.38;;;;;;;-1.80;100.00;100870.69;5051352;28;20110;-54
2021/12/25 07:43:18;;;;;;;8.75;4.10;;;;;;;-1.77;100.00;100873.22;5050593;28;20527;-53
2021/12/25 07:45:47;;;;;;;8.00;3.72;;;;;;;-1.79;100.00;100877.56;5047947;28;20598;-53
2021/12/25 07:48:19;;;;;;;7.88;4.22;;;;;;;-1.81;100.00;100877.59;5049283;28;20033;-54
2021/12/25 07:50:48;;;;;;;7.75;3.78;;;;;;;-1.91;100.00;100874.28;5051328;28;20090;-52
2021/12/25 07:53:17;;;;;;;9.15;4.00;;;;;;;-1.99;100.00;100889.00;5051206;28;20564;-53
2021/12/25 07:55:47;;;;;;;8.90;4.40;;;;;;;-1.93;100.00;100880.34;5048443;28;20056;-51
2021/12/25 07:58:15;;;;;;;7.28;4.05;;;;;;;-2.04;100.00;100890.78;5049261;28;20045;-51
2021/12/25 08:00:44;;;;;;;9.25;4.13;;;;;;;-2.07;100.00;100894.25;5051007;28;20059;-52
2021/12/25 08:03:13;;;;;;;9.52;4.60;;;;;;;-2.24;100.00;100897.00;5051048;28;20102;-53
2021/12/25 08:05:43;;;;;;;9.93;4.00;;;;;;;-2.22;100.00;100894.44;5052526;28;20049;-52
2021/12/25 08:08:12;;;;;;;9.80;4.63;;;;;;;-2.26;100.00;100896.19;5052269;28;20102;-53
2021/12/25 08:10:42;;;;;;;8.13;4.10;;;;;;;-2.23;100.00;100896.13;5055104;28;20037;-51
2021/12/25 08:13:13;;;;;;;9.05;4.20;;;;;;;-2.31;100.00;100904.81;5055290;28;20518;-50
2021/12/25 08:15:42;;;;;;;7.85;3.95;;;;;;;-2.40;100.00;100908.34;5053926;28;20833;-52
2021/12/25 08:18:10;;;;;;;8.90;3.67;;;;;;;-2.39;100.00;100907.47;5054870;28;20041;-53
2021/12/25 08:20:39;;;;;;;7.05;3.42;;;;;;;-2.40;100.00;100893.75;5051884;28;20605;-52
2021/12/25 08:23:08;;;;;;;6.47;3.30;;;;;;;-2.44;100.00;100910.13;5052481;28;20048;-52
2021/12/25 08:25:40;;;;;;;7.63;3.45;;;;;;;-2.52;100.00;100904.19;5055028;28;20583;-53
2021/12/25 08:28:09;;;;;;;7.47;3.33;;;;;;;-2.48;100.00;100905.88;5054787;28;20124;-55
2021/12/25 08:30:37;;;;;;;6.95;3.22;;;;;;;-2.55;100.00;100907.66;5054928;28;20049;-55
2021/12/25 08:33:06;;;;;;;7.47;3.33;;;;;;;-2.56;100.00;100912.81;5054924;28;20491;-52
2021/12/25 08:35:34;;;;;;;7.95;3.90;;;;;;;-2.59;100.00;100923.13;5054895;28;20045;-53
2021/12/25 08:38:02;;;;;;;7.10;2.72;;;;;;;-2.61;100.00;100918.00;5054610;28;20052;-54
2021/12/25 08:40:32;;;;;;;4.82;2.50;;;;;;;-2.58;100.00;100922.25;5054592;28;20041;-53
2021/12/25 08:43:02;;;;;;;5.22;2.80;;;;;;;-2.51;100.00;100923.06;5054593;28;20362;-53
2021/12/25 08:45:41;;;;;;;5.30;2.40;;;;;;;-2.55;100.00;100917.94;5054274;28;20068;-53
2021/12/25 08:48:16;;;;;;;6.30;2.25;;;;;;;-2.50;100.00;100929.94;5053810;28;20044;-53
2021/12/25 08:50:49;;;;;;;6.30;1.98;;;;;;;-2.45;100.00;100929.00;5051137;28;20053;-53
2021/12/25 08:53:17;;;;;;;6.07;2.40;;;;;;;-2.35;100.00;100929.75;5053008;28;20037;-52
2021/12/25 08:55:47;;;;;;;3.78;1.80;;;;;;;-2.28;100.00;100936.56;5054336;28;20480;-52
2021/12/25 08:58:16;;;;;;;4.35;1.83;;;;;;;-2.29;99.20;100940.03;5054251;28;20040;-51
2021/12/25 09:00:45;;;;;;;5.68;1.77;;;;;;;-2.38;98.42;100958.97;5054180;28;20491;-53
2021/12/25 09:03:14;;;;;;;6.75;1.70;;;;;;;-2.35;99.58;100942.66;5054075;28;20057;-51
2021/12/25 09:05:42;;;;;;;5.90;1.90;;;;;;;-2.24;98.00;100952.84;5054385;28;20773;-48
2021/12/25 09:08:10;;;;;;;6.35;2.13;;;;;;;-2.13;97.62;100957.88;5054031;28;20095;-51
2021/12/25 09:10:39;;;;;;;6.40;2.20;;;;;;;-2.22;96.94;100953.69;5051837;28;20075;-51
2021/12/25 09:13:08;;;;;;;2.85;1.60;;;;;;;-2.19;96.43;100955.41;5051517;28;20052;-49
2021/12/25 09:15:36;;;;;;;3.35;1.50;;;;;;;-2.16;95.79;100952.78;5053919;28;20048;-52
2021/12/25 09:18:04;;;;;;;5.18;1.95;;;;;;;-2.01;95.65;100969.78;5053735;28;20045;-53
2021/12/25 09:20:33;;;;;;;3.05;1.50;;;;;;;-2.05;93.78;100963.81;5053601;28;20060;-51
2021/12/25 09:23:01;;;;;;;2.95;1.20;;;;;;;-2.05;93.26;100969.81;5051300;28;20049;-49
2021/12/25 09:25:29;;;;;;;3.47;1.50;;;;;;;-2.00;93.91;100971.47;5050861;28;20381;-52
2021/12/25 09:27:57;;;;;;;3.65;1.40;;;;;;;-1.96;92.51;100965.44;5053749;28;20114;-51
2021/12/25 09:30:27;;;;;;;4.80;1.40;;;;;;;-1.95;90.26;100965.44;5053641;28;20072;-53
2021/12/25 09:32:55;;;;;;;2.80;1.17;;;;;;;-1.88;89.87;100967.06;5053437;28;20053;-51
2021/12/25 09:35:24;;;;;;;3.78;1.10;;;;;;;-1.77;89.29;100971.22;5053270;28;20508;-51
2021/12/25 09:37:52;;;;;;;5.97;1.25;;;;;;;-1.81;88.57;100982.44;5052575;28;20052;-48
2021/12/25 09:40:20;;;;;;;3.88;1.10;;;;;;;-1.88;86.38;100979.09;5050479;28;20080;-51
2021/12/25 09:42:48;;;;;;;4.05;1.52;;;;;;;-1.98;85.85;100978.34;5051547;28;20127;-50
2021/12/25 09:45:16;;;;;;;5.90;1.50;;;;;;;-1.96;85.31;100970.59;5053424;28;20361;-52
2021/12/25 09:47:46;;;;;;;1.80;1.00;;;;;;;-2.06;84.70;100978.44;5053433;28;20053;-54
2021/12/25 09:50:14;;;;;;;2.13;1.00;;;;;;;-2.00;83.19;100977.50;5053263;28;20048;-51
2021/12/25 09:52:42;;;;;;;2.95;0.98;;;;;;;-1.97;83.33;100986.94;5049973;28;20404;-52
2021/12/25 09:55:13;;;;;;;2.67;1.20;;;;;;;-2.05;82.80;100985.28;5050619;28;20388;-53
2021/12/25 09:57:41;;;;;;;4.63;1.17;;;;;;;-2.03;83.79;100982.72;5053071;28;20028;-52
2021/12/25 10:00:12;;;;;;;2.75;1.30;;;;;;;-2.06;81.47;100981.00;5053419;28;20491;-52
2021/12/25 10:02:48;;;;;;;3.45;1.20;;;;;;;-1.97;81.50;100984.34;5051693;28;20045;-52
2021/12/25 10:05:26;;;;;;;1.67;1.08;;;;;;;-1.99;80.05;100979.22;5049699;28;20049;-53
2021/12/25 10:08:07;;;;;;;2.72;1.05;;;;;;;-2.05;80.53;100982.69;5049307;28;20416;-52
2021/12/25 10:10:41;;;;;;;2.08;0.80;;;;;;;-2.06;79.64;100991.31;5053302;28;20037;-53
2021/12/25 10:13:22;;;;;;;2.25;0.85;;;;;;;-2.05;78.91;100995.59;5052837;28;20100;-52
2021/12/25 10:15:51;;;;;;;1.75;0.88;;;;;;;-2.02;79.63;100980.97;5053151;28;20404;-54
2021/12/25 10:18:29;;;;;;;2.00;0.93;;;;;;;-1.94;79.88;100979.16;5051032;28;20131;-52
2021/12/25 10:20:58;;;;;;;1.45;0.98;;;;;;;-1.94;80.50;100981.75;5047590;28;20118;-51
2021/12/25 10:23:29;;;;;;;2.15;1.08;;;;;;;-1.96;78.26;100983.50;5050806;28;20455;-52
2021/12/25 10:25:59;;;;;;;2.63;1.20;;;;;;;-1.83;79.92;100984.19;5051265;28;20427;-51
2021/12/25 10:28:33;;;;;;;1.45;0.93;;;;;;;-1.87;81.32;100984.25;5052149;28;20110;-53
2021/12/25 10:31:05;;;;;;;2.13;0.88;;;;;;;-1.91;78.96;100994.59;5051261;28;20041;-53
2021/12/25 10:33:37;;;;;;;3.50;0.98;;;;;;;-1.79;78.14;100988.44;5050102;28;20163;-54
2021/12/25 10:36:08;;;;;;;1.80;0.93;;;;;;;-1.81;78.92;100991.06;5051550;28;20057;-52
2021/12/25 10:38:38;;;;;;;3.42;1.13;;;;;;;-1.84;79.10;100985.94;5052357;28;20037;-51
2021/12/25 10:41:24;;;;;;;4.38;1.67;;;;;;;-1.83;78.33;100984.19;5051356;28;20570;-51
2021/12/25 10:44:10;;;;;;;5.32;1.30;;;;;;;-1.87;79.39;100980.78;5049813;28;20048;-52
2021/12/25 10:46:51;;;;;;;4.47;1.73;;;;;;;-1.77;80.04;100984.97;5051611;28;20056;-49
2021/12/25 10:49:22;;;;;;;1.73;0.85;;;;;;;-1.82;78.82;100978.19;5052373;28;20049;-53
2021/12/25 10:51:51;;;;;;;1.75;0.90;;;;;;;-1.71;77.96;100977.16;5049795;28;20057;-53
2021/12/25 10:54:19;;;;;;;5.70;1.00;;;;;;;-1.74;78.22;100969.47;5048386;28;20154;-53
2021/12/25 10:56:49;;;;;;;6.55;2.70;;;;;;;-1.67;78.77;100972.00;5051270;28;20344;-55
2021/12/25 10:59:19;;;;;;;2.80;1.10;;;;;;;-1.77;78.47;100971.22;5051849;28;20049;-53
2021/12/25 11:01:50;;;;;;;3.65;1.13;;;;;;;-1.81;78.96;100964.38;5051758;28;20499;-52
2021/12/25 11:04:29;;;;;;;3.42;1.10;;;;;;;-1.91;79.12;100961.94;5051668;28;20102;-54
2021/12/25 11:06:59;;;;;;;3.95;1.45;;;;;;;-1.89;78.47;100960.19;5051716;28;20099;-50
2021/12/25 11:09:27;;;;;;;2.83;1.02;;;;;;;-1.81;78.17;100954.94;5051628;28;20041;-53
2021/12/25 11:12:16;;;;;;;2.45;1.10;;;;;;;-1.79;79.17;100957.50;5051777;28;20045;-51
2021/12/25 11:14:46;;;;;;;1.58;0.98;;;;;;;-1.85;77.98;100953.28;5051731;28;20048;-51
2021/12/25 11:17:22;;;;;;;3.13;1.10;;;;;;;-1.83;78.23;100945.53;5050456;28;20052;-50
2021/12/25 11:19:59;;;;;;;2.60;1.25;;;;;;;-1.81;77.55;100948.91;5051426;28;20106;-52
2021/12/25 11:22:28;;;;;;;2.55;1.00;;;;;;;-1.77;77.42;100945.44;5051770;28;20049;-52
2021/12/25 11:24:58;;;;;;;1.98;0.70;;;;;;;-1.75;77.46;100954.00;5051884;28;20551;-52
2021/12/25 11:27:26;;;;;;;4.63;0.90;;;;;;;-1.76;76.38;100947.16;5051517;28;20060;-52
2021/12/25 11:29:55;;;;;;;2.45;1.15;;;;;;;-1.74;76.70;100951.41;5051546;28;20128;-53
2021/12/25 11:32:23;;;;;;;1.65;0.93;;;;;;;-1.78;76.16;100948.91;5049350;28;20553;-54
2021/12/25 11:34:52;;;;;;;1.77;0.80;;;;;;;-1.78;74.99;100949.75;5048439;28;20057;-52
2021/12/25 11:37:20;;;;;;;2.15;0.93;;;;;;;-1.75;75.71;100939.38;5051123;28;20566;-51
2021/12/25 11:39:52;;;;;;;3.80;1.05;;;;;;;-1.71;76.14;100945.38;5050364;28;20056;-48
2021/12/25 11:42:22;;;;;;;1.10;0.70;;;;;;;-1.73;76.39;100940.22;5051660;28;20111;-50
2021/12/25 11:44:53;;;;;;;2.13;0.75;;;;;;;-1.70;76.74;100939.34;5051207;28;20799;-50
2021/12/25 11:47:34;;;;;;;1.70;0.90;;;;;;;-1.68;76.33;100931.59;5051204;28;20415;-49
2021/12/25 11:50:06;;;;;;;3.47;1.60;;;;;;;-1.63;76.12;100933.22;5051258;28;20033;-52
2021/12/25 11:52:41;;;;;;;4.47;1.60;;;;;;;-1.61;75.03;100936.66;5051403;28;20048;-50
2021/12/25 11:56:01;;;;;;;2.88;1.20;;;;;;;-1.62;76.21;100945.25;5051048;28;20048;-53
2021/12/25 11:58:39;;;;;;;3.38;1.02;;;;;;;-1.62;76.05;100942.69;5048847;28;20089;-49
2021/12/25 12:01:33;;;;;;;2.35;1.00;;;;;;;-1.61;75.53;100941.81;5049920;28;20450;-51
2021/12/25 12:04:04;;;;;;;1.67;0.82;;;;;;;-1.59;75.25;100937.47;5041405;28;20068;-51
2021/12/25 12:07:05;;;;;;;2.38;1.00;;;;;;;-1.57;74.73;100940.03;5049695;28;20053;-51
2021/12/25 12:09:50;;;;;;;2.58;0.90;;;;;;;-1.54;75.22;100948.59;5045356;28;20065;-53
2021/12/25 12:12:21;;;;;;;1.33;0.80;;;;;;;-1.56;75.47;100942.59;5050547;28;20435;-50
2021/12/25 12:15:08;;;;;;;4.78;1.35;;;;;;;-1.50;75.96;100940.81;5049091;28;20060;-52
2021/12/25 12:17:38;;;;;;;1.33;0.70;;;;;;;-1.51;74.94;100936.50;5051056;28;20054;-51
2021/12/25 12:20:09;;;;;;;2.42;1.00;;;;;;;-1.51;74.76;100937.38;5050757;28;20057;-52
2021/12/25 12:22:52;;;;;;;1.55;0.90;;;;;;;-1.52;75.89;100956.31;5051085;28;20203;-53
2021/12/25 12:25:28;;;;;;;1.05;0.80;;;;;;;-1.47;74.13;100943.31;5050758;28;20519;-51
2021/12/25 12:27:58;;;;;;;3.75;1.00;;;;;;;-1.46;75.26;100938.19;5050988;28;20408;-50